• Join FlightAware (Why Join?)
  • Login
  • US Flag 
06:50PM EST


 

Airport Tracker/Info


-or-


 

Live Flight TrackerFlight Track Log ✈ KAL1337 ✈ 23-Sep-2013 ✈ RKSS / GMP - RKJY / RSU

Flight Track Log - Related Links

Times and Time Zones

All times are in EDT time to prevent confusion due to time zone crossing. See the KAL1337 flight status page for this flight to view local times or setup timezone preferences in your user account.

Time Position Orientation Groundspeed Altitude Reporting Facility
EDT Latitude Longitude Course Direction KTS MPH feet Rate Location/Type
03:42AM 37.4733 126.8173 166° South  Level Estimated
03:43AM 37.3882 126.8440 166° South  Level Estimated
03:44AM 37.3032 126.8706 166° South  Level Estimated
03:45AM 37.2181 126.8971 166° South  Level Estimated
03:46AM 37.1303 126.9244 166° South  Level Estimated
03:47AM 37.0424 126.9517 166° South  Level Estimated
03:48AM 36.9546 126.9789 166° South  Level Estimated
03:49AM 36.8668 127.0061 166° South  Level Estimated
03:50AM 36.7789 127.0331 166° South  Level Estimated
03:51AM 36.6911 127.0602 166° South  Level Estimated
03:52AM 36.6032 127.0871 166° South  Level Estimated
03:53AM 36.5154 127.1140 166° South  Level Estimated
03:54AM 36.4214 127.1427 166° South  Level Estimated
03:55AM 36.3275 127.1713 166° South  Level Estimated
03:56AM 36.2336 127.1999 166° South  Level Estimated
03:57AM 36.1396 127.2283 166° South  Level Estimated
03:58AM 36.0457 127.2568 166° South  Level Estimated
03:59AM 35.9517 127.2851 166° South  Level Estimated
04:00AM 35.8577 127.3134 166° South  Level Estimated
04:01AM 35.7638 127.3416 166° South  Level Estimated
04:02AM 35.6698 127.3697 166° South  Level Estimated
04:03AM 35.5758 127.3978 166° South  Level Estimated
04:04AM 35.4818 127.4258 166° South  Level Estimated
04:05AM 35.3878 127.4537 166° South  Level Estimated
04:06AM 35.2938 127.4816 166° South  Level Estimated
04:07AM 35.1998 127.5094 166° South  Level Estimated
04:08AM 35.1058 127.5372 166° South  Level Estimated
04:09AM 35.0117 127.5649 166° South  Level Estimated
04:10AM 34.9177 127.5925 166° South  Level Estimated
04:11AM 34.8398 127.6153 166° South  Level Estimated
04:12AM 34.8398 127.6153 180° South  Level Estimated
04:13AM 34.8398 127.6153 180° South  Level Estimated
04:14AM 34.8398 127.6153 180° South  Level Estimated
04:15AM 34.8398 127.6153 180° South  Level Estimated
04:16AM 34.8398 127.6153 180° South  Level Estimated
04:17AM 34.8398 127.6153 180° South  Level Estimated
04:18AM 34.8398 127.6153 180° South  Level Estimated
04:19AM 34.8398 127.6153 180° South  Level Estimated
04:20AM 34.8398 127.6153 180° South  Level Estimated
04:21AM 34.8398 127.6153 180° South  Level Estimated
04:22AM 34.8398 127.6153 180° South  Level Estimated
04:23AM 34.8398 127.6153 180° South  Level Estimated